Time;durP1;ratioP1;P1;durP2;ratioP2;P2;SDS_P1;SDS_P2;PMS_P1;PMS_P2;Temp;Humidity;BMP_temperature;BMP_pressure;BME280_temperature;BME280_humidity;BME280_pressure;Samples;Min_cycle;Max_cycle;Signal;HPM_P1;HPM_P2
2021/07/07 00:00:58;;;;;;;5.50;2.03;;;17.10;99.90;;;;;;5033005;28;20037;-67
2021/07/07 00:03:25;;;;;;;6.30;2.20;;;17.10;99.90;;;;;;5033223;28;20030;-66
2021/07/07 00:05:52;;;;;;;8.75;2.35;;;17.10;99.90;;;;;;5032560;28;20417;-67
2021/07/07 00:08:18;;;;;;;9.75;2.35;;;17.10;99.90;;;;;;5032826;28;20351;-67
2021/07/07 00:10:44;;;;;;;3.88;1.90;;;17.10;99.90;;;;;;5032989;28;20033;-67
2021/07/07 00:13:09;;;;;;;5.55;2.00;;;16.90;99.90;;;;;;5033072;28;20048;-67
2021/07/07 00:15:36;;;;;;;6.05;2.47;;;16.80;99.90;;;;;;5032149;28;20056;-67
2021/07/07 00:18:07;;;;;;;6.45;1.95;;;16.80;99.90;;;;;;5031801;28;20045;-67
2021/07/07 00:20:42;;;;;;;6.82;2.20;;;16.80;99.90;;;;;;5032914;28;20025;-67
2021/07/07 00:23:08;;;;;;;6.13;2.10;;;16.70;99.90;;;;;;5031391;28;20421;-67
2021/07/07 00:25:34;;;;;;;6.03;2.30;;;16.70;99.90;;;;;;5032512;28;20041;-67
2021/07/07 00:28:01;;;;;;;6.78;2.75;;;16.70;99.90;;;;;;5032357;28;20033;-66
2021/07/07 00:30:27;;;;;;;6.68;2.38;;;16.60;99.90;;;;;;5015004;28;20790;-67
2021/07/07 00:32:54;;;;;;;7.72;2.60;;;16.60;99.90;;;;;;5032592;28;20034;-67
2021/07/07 00:35:20;;;;;;;8.02;2.65;;;16.60;99.90;;;;;;5032627;28;20029;-66
2021/07/07 00:37:46;;;;;;;6.78;2.60;;;16.70;99.90;;;;;;5031089;28;20532;-67
2021/07/07 00:40:13;;;;;;;6.50;2.75;;;16.70;99.90;;;;;;5032424;28;20026;-67
2021/07/07 00:42:39;;;;;;;6.25;3.53;;;16.70;99.90;;;;;;5032457;28;20075;-68
2021/07/07 00:45:06;;;;;;;7.47;2.53;;;16.80;99.90;;;;;;5032541;28;20029;-68
2021/07/07 00:47:32;;;;;;;5.25;2.70;;;16.70;99.90;;;;;;5032221;28;20037;-68
2021/07/07 00:49:57;;;;;;;4.28;2.72;;;16.70;99.90;;;;;;5032176;28;20090;-68
2021/07/07 00:52:23;;;;;;;5.15;2.65;;;16.80;99.90;;;;;;5031990;28;20029;-68
2021/07/07 00:54:50;;;;;;;6.75;2.78;;;16.70;99.90;;;;;;5032494;28;20026;-68
2021/07/07 00:57:17;;;;;;;4.85;2.38;;;16.70;99.90;;;;;;5031151;28;20083;-67
2021/07/07 00:59:46;;;;;;;8.05;2.45;;;16.80;99.90;;;;;;5030869;28;20061;-68
2021/07/07 01:02:17;;;;;;;8.75;2.65;;;16.70;99.90;;;;;;5031828;28;20098;-68
2021/07/07 01:04:43;;;;;;;9.00;2.35;;;16.60;99.90;;;;;;5030915;28;20428;-68
2021/07/07 01:07:09;;;;;;;5.65;3.00;;;16.60;99.90;;;;;;5030471;28;20045;-68
2021/07/07 01:09:36;;;;;;;13.85;3.05;;;16.70;99.90;;;;;;5032082;28;20052;-68
2021/07/07 01:12:02;;;;;;;7.18;3.38;;;16.70;99.90;;;;;;5032170;28;20087;-67
2021/07/07 01:14:28;;;;;;;14.90;2.78;;;16.70;99.90;;;;;;5031908;28;20517;-66
2021/07/07 01:16:54;;;;;;;7.32;2.67;;;16.70;99.90;;;;;;5031844;28;20076;-67
2021/07/07 01:19:20;;;;;;;7.07;3.00;;;16.60;99.90;;;;;;5030601;28;20123;-68
2021/07/07 01:21:47;;;;;;;8.18;2.72;;;16.60;99.90;;;;;;5031874;28;20037;-68
2021/07/07 01:24:15;;;;;;;6.22;2.30;;;16.60;99.90;;;;;;5031740;28;20041;-68
2021/07/07 01:26:42;;;;;;;5.70;2.10;;;16.60;99.90;;;;;;5032124;28;20121;-67
2021/07/07 01:29:09;;;;;;;5.40;1.88;;;16.50;99.90;;;;;;5034814;28;20030;-67
2021/07/07 01:31:39;;;;;;;6.78;1.80;;;16.50;99.90;;;;;;5036051;28;20099;-67
2021/07/07 01:34:06;;;;;;;4.83;1.87;;;16.40;99.90;;;;;;5034980;28;20029;-67
2021/07/07 01:36:34;;;;;;;5.45;2.05;;;16.30;99.90;;;;;;5035626;28;20048;-67
2021/07/07 01:39:00;;;;;;;4.03;1.98;;;16.40;99.90;;;;;;5034494;28;20032;-67
2021/07/07 01:41:26;;;;;;;5.28;2.42;;;16.30;99.90;;;;;;5035499;28;20068;-67
2021/07/07 01:43:53;;;;;;;6.15;2.13;;;16.30;99.90;;;;;;5035816;28;20057;-67
2021/07/07 01:46:19;;;;;;;7.07;2.05;;;16.20;99.90;;;;;;5035407;28;20431;-67
2021/07/07 01:48:44;;;;;;;9.00;2.90;;;16.10;99.90;;;;;;5034348;28;20143;-67
2021/07/07 01:51:10;;;;;;;6.82;2.15;;;16.10;99.90;;;;;;5035805;28;20021;-67
2021/07/07 01:53:36;;;;;;;3.97;1.58;;;16.10;99.90;;;;;;5035499;28;20029;-67
2021/07/07 01:56:02;;;;;;;7.20;2.00;;;16.10;99.90;;;;;;5034550;28;20022;-67
2021/07/07 01:58:28;;;;;;;3.78;1.83;;;16.00;99.90;;;;;;5035329;28;20462;-67
2021/07/07 02:00:54;;;;;;;6.60;1.90;;;16.00;99.90;;;;;;5035491;28;20041;-67
2021/07/07 02:03:20;;;;;;;7.93;2.97;;;16.00;99.90;;;;;;5033993;28;20109;-67
2021/07/07 02:05:46;;;;;;;5.97;2.28;;;16.00;99.90;;;;;;5035249;28;20025;-67
2021/07/07 02:08:12;;;;;;;4.82;1.88;;;16.00;99.90;;;;;;5035082;28;20501;-67
2021/07/07 02:10:39;;;;;;;5.03;2.28;;;15.90;99.90;;;;;;5035255;28;20469;-67
2021/07/07 02:13:12;;;;;;;6.00;2.10;;;15.90;99.90;;;;;;5034916;28;20106;-67
2021/07/07 02:15:38;;;;;;;4.82;1.65;;;15.90;99.90;;;;;;5035218;28;20022;-67
2021/07/07 02:18:06;;;;;;;6.07;2.08;;;15.90;99.90;;;;;;5017303;28;20086;-67
2021/07/07 02:20:36;;;;;;;5.15;2.28;;;15.80;99.90;;;;;;5033959;28;20106;-67
2021/07/07 02:23:03;;;;;;;5.55;1.98;;;15.80;99.90;;;;;;5034905;28;20029;-67
2021/07/07 02:25:33;;;;;;;7.28;1.67;;;15.80;99.90;;;;;;5034767;28;20041;-67
2021/07/07 02:28:00;;;;;;;9.35;2.10;;;15.80;99.90;;;;;;5033712;28;20037;-67
2021/07/07 02:30:32;;;;;;;7.10;2.20;;;15.80;99.90;;;;;;5034837;28;20037;-67
2021/07/07 02:32:58;;;;;;;5.70;1.65;;;15.80;99.90;;;;;;5034784;28;20033;-67
2021/07/07 02:35:29;;;;;;;10.48;2.10;;;15.70;99.90;;;;;;5034661;28;20040;-67
2021/07/07 02:37:56;;;;;;;5.25;1.80;;;15.80;99.90;;;;;;5034611;28;20364;-67
2021/07/07 02:40:25;;;;;;;6.00;2.00;;;15.70;99.90;;;;;;5034052;28;20037;-66
2021/07/07 02:42:52;;;;;;;13.45;2.67;;;15.70;99.90;;;;;;5033270;28;20120;-66
2021/07/07 02:45:19;;;;;;;6.78;1.80;;;15.70;99.90;;;;;;5034558;28;20037;-67
2021/07/07 02:47:46;;;;;;;2.95;1.52;;;15.70;99.90;;;;;;5034619;28;20041;-66
2021/07/07 02:50:16;;;;;;;7.25;2.17;;;15.70;99.90;;;;;;5033463;28;20029;-66
2021/07/07 02:52:45;;;;;;;6.07;2.28;;;15.70;99.90;;;;;;5034379;28;20528;-67
2021/07/07 02:55:13;;;;;;;3.75;1.95;;;15.70;99.90;;;;;;5034174;28;20029;-66
2021/07/07 03:00:36;;;;;;;6.15;1.30;;;15.70;99.90;;;;;;5034380;28;20037;-67
2021/07/07 03:03:20;;;;;;;6.50;1.92;;;15.70;99.90;;;;;;5034406;28;20034;-67
2021/07/07 03:05:56;;;;;;;5.70;1.67;;;15.70;99.90;;;;;;5032997;28;20048;-66
2021/07/07 03:08:25;;;;;;;4.45;1.65;;;15.60;99.90;;;;;;5033104;28;20103;-66
2021/07/07 03:10:51;;;;;;;2.70;1.55;;;15.70;99.90;;;;;;5032751;28;20475;-66
2021/07/07 03:13:20;;;;;;;3.83;1.48;;;15.60;99.90;;;;;;5034170;28;20033;-67
2021/07/07 03:15:46;;;;;;;6.10;1.70;;;15.50;99.90;;;;;;5034207;28;20029;-66
2021/07/07 03:18:13;;;;;;;5.13;1.80;;;15.50;99.90;;;;;;5034077;28;20028;-66
2021/07/07 03:20:42;;;;;;;3.92;1.67;;;15.60;99.90;;;;;;5049393;28;20046;-67
2021/07/07 03:23:10;;;;;;;4.70;1.77;;;15.60;99.90;;;;;;5033689;28;20033;-67
2021/07/07 03:25:37;;;;;;;5.57;1.80;;;15.60;99.90;;;;;;5033917;28;20421;-66
2021/07/07 03:28:04;;;;;;;6.22;1.50;;;15.60;99.90;;;;;;5033806;28;20562;-66
2021/07/07 03:30:30;;;;;;;5.20;1.60;;;15.50;99.90;;;;;;5049239;28;20026;-67
2021/07/07 03:32:58;;;;;;;8.43;1.75;;;15.60;99.90;;;;;;5033675;28;20071;-67
2021/07/07 03:35:24;;;;;;;4.50;1.73;;;15.50;99.90;;;;;;5032426;28;20390;-67
2021/07/07 03:37:50;;;;;;;4.53;1.70;;;15.50;99.90;;;;;;5033757;28;20033;-67
2021/07/07 03:40:17;;;;;;;6.47;1.92;;;15.50;99.90;;;;;;5029984;28;20049;-65
2021/07/07 03:42:44;;;;;;;11.98;2.60;;;15.60;99.90;;;;;;5024673;28;20026;-65
2021/07/07 03:45:13;;;;;;;8.88;2.03;;;15.60;99.90;;;;;;5033524;28;20041;-65
2021/07/07 03:47:40;;;;;;;3.05;1.65;;;15.60;99.90;;;;;;5024007;28;20378;-64
2021/07/07 03:50:07;;;;;;;5.43;1.77;;;15.50;99.90;;;;;;5032914;28;20077;-65
2021/07/07 03:52:35;;;;;;;8.75;2.38;;;15.50;99.90;;;;;;5031775;28;20433;-65
2021/07/07 03:55:11;;;;;;;10.02;2.40;;;15.60;99.90;;;;;;5003388;28;20043;-65
2021/07/07 03:57:37;;;;;;;5.57;2.10;;;15.50;99.90;;;;;;5032977;28;20060;-65
2021/07/07 04:00:07;;;;;;;8.55;2.13;;;15.50;99.90;;;;;;5032831;28;20060;-65
2021/07/07 04:02:33;;;;;;;5.30;1.67;;;15.50;99.90;;;;;;5033169;28;20041;-63
2021/07/07 04:04:59;;;;;;;4.30;1.75;;;15.60;99.90;;;;;;5033314;28;20095;-65
2021/07/07 04:07:25;;;;;;;3.72;1.90;;;15.60;99.90;;;;;;5032541;28;20133;-65
2021/07/07 04:09:50;;;;;;;5.30;1.70;;;15.70;99.90;;;;;;5033063;28;20382;-65
2021/07/07 04:12:16;;;;;;;5.20;1.65;;;15.80;99.90;;;;;;5052065;28;20032;-65
2021/07/07 04:14:42;;;;;;;3.53;1.50;;;15.70;99.90;;;;;;5052561;28;20458;-65
2021/07/07 04:17:08;;;;;;;3.72;1.60;;;15.60;99.90;;;;;;5053085;28;20037;-65
2021/07/07 04:19:34;;;;;;;11.55;2.97;;;15.60;99.90;;;;;;5051139;28;20389;-67
2021/07/07 04:22:00;;;;;;;4.85;1.73;;;15.60;99.90;;;;;;5052586;28;20115;-67
2021/07/07 04:24:26;;;;;;;6.35;2.58;;;15.60;99.90;;;;;;5051407;28;20112;-67
2021/07/07 04:26:52;;;;;;;6.72;1.98;;;15.60;99.90;;;;;;5052307;28;20045;-68
2021/07/07 04:29:18;;;;;;;7.10;1.58;;;15.60;99.90;;;;;;5052418;28;20032;-67
2021/07/07 04:31:44;;;;;;;3.72;1.75;;;15.60;99.90;;;;;;5051517;28;20056;-66
2021/07/07 04:34:10;;;;;;;6.57;1.90;;;15.60;99.90;;;;;;5052351;28;20061;-66
2021/07/07 04:36:37;;;;;;;6.53;1.70;;;15.60;99.90;;;;;;5052562;28;20028;-67
2021/07/07 04:39:07;;;;;;;5.10;1.60;;;15.50;99.90;;;;;;5052471;28;20025;-66
2021/07/07 04:41:34;;;;;;;3.55;1.70;;;15.70;99.90;;;;;;5038250;28;20026;-69
2021/07/07 04:44:01;;;;;;;6.40;1.50;;;15.80;99.90;;;;;;5031058;28;20497;-66
2021/07/07 04:46:27;;;;;;;7.25;1.80;;;15.80;99.90;;;;;;5030807;28;20033;-68
2021/07/07 04:48:53;;;;;;;10.85;2.15;;;15.80;99.90;;;;;;5031149;28;20087;-66
2021/07/07 04:51:19;;;;;;;8.45;2.85;;;15.80;99.90;;;;;;5032170;28;20443;-64
2021/07/07 04:53:45;;;;;;;3.00;1.50;;;15.80;99.90;;;;;;5032064;28;20037;-65
2021/07/07 04:56:11;;;;;;;5.32;1.63;;;15.80;99.90;;;;;;5032181;28;20064;-66
2021/07/07 04:58:37;;;;;;;2.95;1.55;;;15.80;99.90;;;;;;5030899;28;20102;-65
2021/07/07 05:01:03;;;;;;;3.47;1.48;;;15.80;99.90;;;;;;5030934;28;20487;-66
2021/07/07 05:03:29;;;;;;;9.30;3.95;;;15.90;99.90;;;;;;5030856;28;20112;-67
2021/07/07 05:05:56;;;;;;;9.15;2.92;;;15.80;99.90;;;;;;5030572;28;20034;-66
2021/07/07 05:08:21;;;;;;;4.20;1.90;;;15.90;99.90;;;;;;5032328;28;20033;-65
2021/07/07 05:10:47;;;;;;;6.10;2.17;;;15.90;99.90;;;;;;5038240;28;20083;-65
2021/07/07 05:13:16;;;;;;;3.95;1.88;;;15.80;99.90;;;;;;5050639;28;20060;-66
2021/07/07 05:15:41;;;;;;;4.75;1.88;;;15.70;99.90;;;;;;5050314;28;20481;-66
2021/07/07 05:18:11;;;;;;;4.88;1.85;;;15.60;99.90;;;;;;5052039;28;20108;-66
2021/07/07 05:23:57;;;;;;;2.75;1.40;;;15.70;99.90;;;;;;5041332;28;20091;-66
2021/07/07 05:26:22;;;;;;;4.80;1.55;;;15.80;99.90;;;;;;5031693;28;20127;-66
2021/07/07 05:28:48;;;;;;;3.78;2.05;;;15.80;99.90;;;;;;5031694;28;20091;-65
2021/07/07 05:31:14;;;;;;;25.33;8.63;;;15.80;99.90;;;;;;5030499;28;20405;-66
2021/07/07 05:33:39;;;;;;;18.65;3.28;;;15.90;99.90;;;;;;5031585;28;20061;-66
2021/07/07 05:36:08;;;;;;;4.85;1.83;;;16.00;99.90;;;;;;5030466;28;20034;-66
2021/07/07 05:38:35;;;;;;;6.57;2.15;;;16.00;99.90;;;;;;5030731;28;20414;-65
2021/07/07 05:41:01;;;;;;;7.80;2.03;;;16.10;99.90;;;;;;5030345;28;20029;-66
2021/07/07 05:43:29;;;;;;;4.72;2.72;;;16.00;99.90;;;;;;5044508;28;20033;-66
2021/07/07 05:45:58;;;;;;;7.75;2.25;;;16.10;99.90;;;;;;5050563;28;20035;-67
2021/07/07 05:48:24;;;;;;;5.95;2.28;;;16.20;99.90;;;;;;5051455;28;20036;-67
2021/07/07 05:50:50;;;;;;;3.30;1.88;;;16.10;99.90;;;;;;5050466;28;20033;-65
2021/07/07 05:53:16;;;;;;;8.43;2.00;;;16.20;99.90;;;;;;5050270;28;20025;-65
2021/07/07 05:55:42;;;;;;;4.20;2.05;;;16.10;99.90;;;;;;5051571;28;20053;-65
2021/07/07 05:58:08;;;;;;;3.00;2.13;;;16.20;99.90;;;;;;5050361;28;20025;-66
2021/07/07 06:00:34;;;;;;;4.25;1.92;;;16.20;99.90;;;;;;5050115;28;20441;-66
2021/07/07 06:02:59;;;;;;;8.15;2.22;;;16.30;99.90;;;;;;5051818;28;20025;-66
2021/07/07 06:05:27;;;;;;;4.82;2.45;;;16.30;99.90;;;;;;5051703;28;20083;-66
2021/07/07 06:07:54;;;;;;;7.22;1.90;;;16.30;99.90;;;;;;5051126;28;20044;-65
2021/07/07 06:10:23;;;;;;;5.20;2.30;;;16.40;99.90;;;;;;5050053;28;20045;-66
2021/07/07 06:12:49;;;;;;;5.05;2.22;;;16.40;99.90;;;;;;5051122;28;20091;-66
2021/07/07 06:15:15;;;;;;;6.50;2.38;;;16.40;99.90;;;;;;5053942;28;20033;-66
2021/07/07 06:17:43;;;;;;;4.93;2.05;;;16.50;99.90;;;;;;5054716;28;20025;-66
2021/07/07 06:20:11;;;;;;;3.88;2.00;;;16.50;99.90;;;;;;5053933;28;20025;-66
2021/07/07 06:22:39;;;;;;;7.93;3.22;;;16.60;99.90;;;;;;5054666;28;20094;-66
2021/07/07 06:25:07;;;;;;;8.20;2.17;;;16.70;99.90;;;;;;5053884;28;20504;-65
2021/07/07 06:27:37;;;;;;;5.63;2.38;;;16.80;99.90;;;;;;5069983;28;20485;-66
2021/07/07 06:30:16;;;;;;;12.00;2.97;;;16.80;99.90;;;;;;5054969;28;20481;-65
2021/07/07 06:32:46;;;;;;;4.03;1.70;;;17.00;99.90;;;;;;5054928;28;20394;-65
2021/07/07 06:35:12;;;;;;;5.72;2.08;;;17.10;99.90;;;;;;5053375;28;20040;-66
2021/07/07 06:37:39;;;;;;;4.38;1.92;;;17.10;99.90;;;;;;5036523;28;20033;-65
2021/07/07 06:40:06;;;;;;;5.57;2.25;;;17.00;99.90;;;;;;5053616;28;20044;-65
2021/07/07 06:42:32;;;;;;;5.43;1.90;;;17.00;99.90;;;;;;5054182;28;20032;-67
2021/07/07 06:45:06;;;;;;;4.32;1.73;;;17.10;99.90;;;;;;5053195;28;20127;-66
2021/07/07 06:47:35;;;;;;;7.78;2.80;;;17.30;99.90;;;;;;5053097;28;20045;-66
2021/07/07 06:50:01;;;;;;;5.22;2.13;;;17.50;99.90;;;;;;5054396;28;20025;-66
2021/07/07 06:52:27;;;;;;;8.23;2.75;;;17.60;99.90;;;;;;5054296;28;20417;-66
2021/07/07 06:54:53;;;;;;;17.10;11.70;;;17.20;99.90;;;;;;5054228;28;20029;-66
2021/07/07 06:57:19;;;;;;;4.65;2.28;;;17.40;99.90;;;;;;5054164;28;20442;-66
2021/07/07 06:59:45;;;;;;;7.18;1.98;;;17.50;99.90;;;;;;5053058;28;20059;-66
2021/07/07 07:02:11;;;;;;;3.47;1.90;;;17.50;99.90;;;;;;5054380;28;20505;-68
2021/07/07 07:04:36;;;;;;;3.40;1.80;;;17.40;99.90;;;;;;5053653;28;20043;-68
2021/07/07 07:07:03;;;;;;;6.22;2.00;;;17.30;99.90;;;;;;5052673;28;20041;-68
2021/07/07 07:09:29;;;;;;;4.72;2.10;;;17.20;99.90;;;;;;5054003;28;20117;-68
2021/07/07 07:11:55;;;;;;;4.72;2.28;;;17.20;99.90;;;;;;5052758;28;20124;-68
2021/07/07 07:14:21;;;;;;;5.78;3.00;;;17.30;99.90;;;;;;5052829;28;20048;-68
2021/07/07 07:16:47;;;;;;;7.55;1.70;;;17.50;99.90;;;;;;5054242;28;20048;-68
2021/07/07 07:19:16;;;;;;;6.70;1.95;;;17.50;99.90;;;;;;5054126;28;20037;-68
2021/07/07 07:21:43;;;;;;;4.22;1.70;;;17.70;99.90;;;;;;5052771;28;20025;-68
2021/07/07 07:24:09;;;;;;;3.67;1.65;;;17.80;99.90;;;;;;5052968;28;20091;-67
2021/07/07 07:26:38;;;;;;;4.75;1.98;;;18.00;99.90;;;;;;5052186;28;20482;-68
2021/07/07 07:29:05;;;;;;;4.60;1.77;;;18.00;99.90;;;;;;5053982;28;20389;-68
2021/07/07 07:31:32;;;;;;;5.80;1.75;;;17.90;99.90;;;;;;5053658;28;20486;-68
2021/07/07 07:33:58;;;;;;;3.28;1.52;;;17.90;99.90;;;;;;5053396;28;20044;-68
2021/07/07 07:36:24;;;;;;;9.50;3.40;;;18.10;99.90;;;;;;5053831;28;20025;-68
2021/07/07 07:38:59;;;;;;;5.30;2.10;;;18.10;99.90;;;;;;5052056;28;20036;-68
2021/07/07 07:41:34;;;;;;;3.25;1.60;;;18.10;99.90;;;;;;5068830;28;20041;-68
2021/07/07 07:44:00;;;;;;;2.20;1.20;;;18.10;99.90;;;;;;5052489;28;20144;-68
2021/07/07 07:46:30;;;;;;;3.88;1.85;;;18.10;99.90;;;;;;5034552;28;20381;-68
2021/07/07 07:48:56;;;;;;;5.53;1.40;;;18.20;99.90;;;;;;5033594;28;20060;-68
2021/07/07 07:51:23;;;;;;;4.20;1.98;;;18.30;99.90;;;;;;5032434;28;20029;-68
2021/07/07 07:53:49;;;;;;;10.95;2.05;;;18.30;99.90;;;;;;5032273;28;20026;-68
2021/07/07 07:56:14;;;;;;;4.25;2.10;;;18.30;99.90;;;;;;5032073;28;20079;-68
2021/07/07 07:58:40;;;;;;;5.15;1.65;;;18.30;99.90;;;;;;5033113;28;20433;-68
2021/07/07 08:01:06;;;;;;;4.22;1.70;;;18.30;99.90;;;;;;5032006;28;20029;-68
2021/07/07 08:03:32;;;;;;;10.05;1.63;;;18.30;99.90;;;;;;5031862;28;20033;-68
2021/07/07 08:05:57;;;;;;;3.60;1.52;;;18.40;99.90;;;;;;5032991;28;20041;-68
2021/07/07 08:08:23;;;;;;;5.95;1.40;;;18.50;99.90;;;;;;5032942;28;20367;-68
2021/07/07 08:10:49;;;;;;;6.70;1.40;;;18.60;99.90;;;;;;5032922;28;20545;-68
2021/07/07 08:13:15;;;;;;;3.22;1.42;;;18.70;99.90;;;;;;5032012;28;20039;-68
2021/07/07 08:15:40;;;;;;;4.18;1.63;;;19.00;99.90;;;;;;5033071;28;20026;-68
2021/07/07 08:18:06;;;;;;;3.95;1.27;;;19.00;99.90;;;;;;5033078;28;20025;-67
2021/07/07 08:20:32;;;;;;;4.47;1.33;;;18.80;99.90;;;;;;5033072;28;20120;-67
2021/07/07 08:22:58;;;;;;;5.10;1.80;;;18.70;99.90;;;;;;5032829;28;20128;-68
2021/07/07 08:25:24;;;;;;;3.17;1.77;;;18.80;99.90;;;;;;5032640;28;20045;-68
2021/07/07 08:27:50;;;;;;;7.68;1.88;;;18.90;99.90;;;;;;5031398;28;20040;-67
2021/07/07 08:30:17;;;;;;;3.20;1.52;;;19.00;99.90;;;;;;5031690;28;20025;-67
2021/07/07 08:32:43;;;;;;;6.32;1.55;;;18.80;99.90;;;;;;5031489;28;20025;-67
2021/07/07 08:35:10;;;;;;;3.75;1.20;;;18.80;99.90;;;;;;5031563;28;20032;-67
2021/07/07 08:37:37;;;;;;;4.47;1.73;;;18.90;99.90;;;;;;5032076;28;20410;-67
2021/07/07 08:40:05;;;;;;;4.90;1.25;;;18.80;99.90;;;;;;5031144;28;20025;-67
2021/07/07 08:42:34;;;;;;;6.07;2.25;;;18.90;99.90;;;;;;5014750;28;20140;-68
2021/07/07 08:45:05;;;;;;;5.28;1.20;;;19.10;99.90;;;;;;5032321;28;20017;-68
2021/07/07 08:47:30;;;;;;;5.18;1.50;;;19.20;99.90;;;;;;5032598;28;20040;-68
2021/07/07 08:49:56;;;;;;;5.32;1.75;;;19.20;99.90;;;;;;5031211;28;20029;-68
2021/07/07 08:52:22;;;;;;;2.75;1.40;;;19.30;99.90;;;;;;5032207;28;20045;-68
2021/07/07 08:54:48;;;;;;;4.45;1.80;;;19.40;99.90;;;;;;5031107;28;20025;-68
2021/07/07 08:57:14;;;;;;;7.15;1.70;;;19.50;99.90;;;;;;5032221;28;20044;-68
2021/07/07 08:59:40;;;;;;;4.43;1.50;;;19.70;99.90;;;;;;5032043;28;20101;-68
2021/07/07 09:02:11;;;;;;;4.93;1.50;;;19.90;99.90;;;;;;5031040;28;20041;-68
2021/07/07 09:04:43;;;;;;;3.63;1.50;;;19.90;99.90;;;;;;5031227;28;20030;-67
2021/07/07 09:07:17;;;;;;;4.63;2.20;;;19.70;99.90;;;;;;5030934;28;20430;-68
2021/07/07 09:09:44;;;;;;;13.73;6.38;;;19.70;99.90;;;;;;5032028;28;20482;-67
2021/07/07 09:12:27;;;;;;;4.05;1.35;;;19.90;99.90;;;;;;5031961;28;20049;-67
2021/07/07 09:15:13;;;;;;;5.85;1.73;;;19.90;99.90;;;;;;5030969;28;20050;-68
2021/07/07 09:17:44;;;;;;;5.20;1.58;;;20.00;99.90;;;;;;5030949;28;20033;-68
2021/07/07 09:20:26;;;;;;;5.13;1.20;;;20.00;99.90;;;;;;5032095;28;20113;-67
2021/07/07 09:23:26;;;;;;;2.03;1.08;;;20.20;99.90;;;;;;5032183;28;20038;-68
2021/07/07 09:26:01;;;;;;;4.38;1.27;;;20.20;99.90;;;;;;5030516;28;20482;-67
2021/07/07 09:28:36;;;;;;;3.80;1.17;;;20.10;99.90;;;;;;5031782;28;20041;-67
2021/07/07 09:31:34;;;;;;;6.00;1.27;;;20.20;99.90;;;;;;5030310;28;20092;-66
2021/07/07 09:34:18;;;;;;;2.38;1.35;;;20.40;99.90;;;;;;5031951;28;20148;-68
2021/07/07 09:36:48;;;;;;;2.90;1.30;;;20.50;99.90;;;;;;5033775;28;20744;-68
2021/07/07 09:39:16;;;;;;;2.58;1.23;;;20.40;99.90;;;;;;5030927;28;20486;-67
2021/07/07 09:41:45;;;;;;;3.00;1.20;;;20.70;99.90;;;;;;5013992;28;20124;-67
2021/07/07 09:44:11;;;;;;;4.68;1.23;;;20.60;99.90;;;;;;5031668;28;20383;-67
2021/07/07 09:46:37;;;;;;;2.47;0.80;;;20.60;99.90;;;;;;5030440;28;20026;-68
2021/07/07 09:49:04;;;;;;;4.43;1.45;;;20.70;99.90;;;;;;5032318;28;20057;-67
2021/07/07 09:51:32;;;;;;;4.50;1.02;;;20.70;99.90;;;;;;5035595;28;20029;-67
2021/07/07 09:54:03;;;;;;;6.00;1.00;;;20.60;99.90;;;;;;5035717;28;20386;-69
2021/07/07 09:56:28;;;;;;;;;;;20.80;99.90;;;;;;5035822;28;20540;-67
2021/07/07 09:58:54;;;;;;;6.95;3.20;;;20.80;99.90;;;;;;5017960;28;19917;-67
2021/07/07 10:01:20;;;;;;;3.33;1.30;;;21.10;99.90;;;;;;5014760;28;20509;-66
2021/07/07 10:03:47;;;;;;;3.35;1.00;;;21.10;99.90;;;;;;4997857;28;20394;-67
2021/07/07 10:06:14;;;;;;;3.75;1.00;;;21.10;99.90;;;;;;5014048;28;20050;-66
2021/07/07 10:08:44;;;;;;;6.70;1.08;;;21.20;99.90;;;;;;5014164;28;20064;-66
2021/07/07 10:11:10;;;;;;;5.95;1.10;;;21.30;99.90;;;;;;5014035;28;20034;-67
2021/07/07 10:13:38;;;;;;;5.40;1.40;;;21.30;99.90;;;;;;5014333;28;20045;-67
2021/07/07 10:16:05;;;;;;;4.93;1.48;;;21.40;99.90;;;;;;5014373;28;20053;-67
2021/07/07 10:18:34;;;;;;;4.18;0.98;;;21.50;99.90;;;;;;5015473;28;20022;-67
2021/07/07 10:21:00;;;;;;;4.95;0.90;;;21.40;99.90;;;;;;5014138;28;20076;-67
2021/07/07 10:23:27;;;;;;;10.13;0.93;;;21.60;99.90;;;;;;5014327;28;20033;-67
2021/07/07 10:25:53;;;;;;;4.95;1.52;;;21.70;99.90;;;;;;5013651;28;20041;-67
2021/07/07 10:28:20;;;;;;;5.38;1.10;;;21.70;99.90;;;;;;5014078;28;20502;-67
2021/07/07 10:30:56;;;;;;;5.78;1.20;;;21.90;99.90;;;;;;5015261;28;20037;-67
2021/07/07 10:33:29;;;;;;;4.30;1.00;;;21.90;99.90;;;;;;5015026;28;20449;-67
2021/07/07 10:36:29;;;;;;;2.35;1.02;;;22.10;99.90;;;;;;5014912;28;20044;-67
2021/07/07 10:39:04;;;;;;;4.13;0.95;;;22.20;99.90;;;;;;5010033;28;20038;-68
2021/07/07 10:41:46;;;;;;;3.72;1.00;;;22.20;99.90;;;;;;5014011;28;20451;-67
2021/07/07 10:44:40;;;;;;;5.50;1.00;;;22.40;99.90;;;;;;5013476;28;20044;-68
2021/07/07 10:47:12;;;;;;;2.65;0.80;;;22.50;99.90;;;;;;5014479;28;20121;-68
2021/07/07 10:49:39;;;;;;;3.03;0.90;;;22.60;99.90;;;;;;5013686;28;20037;-68
2021/07/07 10:52:08;;;;;;;5.13;1.23;;;22.70;99.90;;;;;;5013612;28;20034;-68
2021/07/07 10:54:37;;;;;;;5.50;1.10;;;22.80;99.90;;;;;;5014446;28;20544;-68
2021/07/07 10:57:10;;;;;;;7.45;2.03;;;22.90;99.90;;;;;;5014697;28;20040;-68
2021/07/07 10:59:40;;;;;;;5.15;1.20;;;23.00;99.90;;;;;;5012782;28;20033;-68
2021/07/07 11:02:15;;;;;;;5.75;1.00;;;23.10;99.90;;;;;;5014200;28;20065;-68
2021/07/07 11:04:44;;;;;;;4.30;0.95;;;23.30;99.90;;;;;;5014597;28;20030;-68
2021/07/07 11:07:31;;;;;;;7.53;1.25;;;23.30;99.90;;;;;;5012810;28;20045;-68
2021/07/07 11:10:09;;;;;;;5.95;1.10;;;23.50;99.90;;;;;;5014136;28;20026;-68
2021/07/07 11:12:35;;;;;;;5.82;1.23;;;23.70;99.90;;;;;;5014109;28;20042;-68
2021/07/07 11:15:07;;;;;;;4.38;1.13;;;23.70;99.90;;;;;;5012672;28;20084;-69
2021/07/07 11:17:35;;;;;;;4.35;0.90;;;23.70;99.90;;;;;;5014299;28;20069;-68
2021/07/07 11:20:25;;;;;;;5.57;1.30;;;23.90;99.90;;;;;;5014158;28;20379;-68
2021/07/07 11:23:05;;;;;;;3.65;1.08;;;24.00;99.90;;;;;;5014118;28;20502;-68
2021/07/07 11:25:35;;;;;;;5.07;1.20;;;24.20;99.90;;;;;;5013997;28;20391;-68
2021/07/07 11:28:05;;;;;;;5.23;1.20;;;24.30;99.90;;;;;;5012640;28;20030;-68
2021/07/07 11:30:32;;;;;;;3.80;1.00;;;24.40;99.20;;;;;;5014206;28;20030;-69
2021/07/07 11:33:03;;;;;;;5.90;2.38;;;24.30;98.10;;;;;;5013979;28;20034;-67
2021/07/07 11:35:33;;;;;;;5.28;1.40;;;24.60;98.50;;;;;;5029168;28;20048;-68
2021/07/07 11:38:02;;;;;;;2.63;0.70;;;24.90;98.30;;;;;;5013814;28;20045;-67
2021/07/07 11:40:31;;;;;;;4.32;1.05;;;24.80;97.50;;;;;;5012536;28;20295;-68
2021/07/07 11:43:11;;;;;;;4.97;0.90;;;24.80;97.20;;;;;;5013408;28;20026;-68
2021/07/07 11:45:47;;;;;;;4.43;1.13;;;24.70;96.80;;;;;;5013727;28;20026;-67
2021/07/07 11:50:47;;;;;;;5.15;1.05;;;24.60;96.20;;;;;;5053251;28;20041;-67
2021/07/07 11:53:14;;;;;;;7.13;0.90;;;24.60;95.00;;;;;;5051757;28;20029;-68
2021/07/07 11:55:54;;;;;;;4.72;2.10;;;24.70;95.00;;;;;;5052101;28;20029;-68
2021/07/07 11:58:38;;;;;;;4.03;1.00;;;24.90;95.60;;;;;;5051779;28;20136;-68
2021/07/07 12:01:15;;;;;;;10.23;1.55;;;25.00;94.60;;;;;;5053025;28;20025;-68
2021/07/07 12:03:41;;;;;;;4.00;1.55;;;24.70;95.20;;;;;;5051858;28;20029;-68
2021/07/07 12:06:13;;;;;;;3.20;0.93;;;24.90;95.20;;;;;;5052666;28;20041;-68
2021/07/07 12:08:45;;;;;;;4.63;0.90;;;25.00;94.50;;;;;;5051614;28;20041;-68
2021/07/07 12:11:15;;;;;;;3.47;1.30;;;25.10;94.80;;;;;;5052506;28;20040;-67
2021/07/07 12:13:50;;;;;;;6.43;1.10;;;24.90;94.40;;;;;;5052821;28;20029;-66
2021/07/07 12:16:36;;;;;;;7.88;1.15;;;24.90;94.90;;;;;;5051281;28;20284;-68
2021/07/07 12:19:07;;;;;;;3.25;0.90;;;25.20;94.80;;;;;;5052449;28;20040;-67
2021/07/07 12:22:05;;;;;;;2.83;0.95;;;25.50;94.00;;;;;;5051705;28;20040;-68
2021/07/07 12:24:39;;;;;;;3.08;1.00;;;25.40;94.00;;;;;;5052634;28;20366;-68
2021/07/07 12:27:11;;;;;;;3.90;1.10;;;25.50;93.50;;;;;;5052240;28;20036;-68
2021/07/07 12:29:41;;;;;;;2.60;0.77;;;25.60;93.30;;;;;;5052792;28;20086;-67
2021/07/07 12:32:25;;;;;;;4.47;0.82;;;25.70;90.90;;;;;;5052509;28;20029;-67
2021/07/07 12:34:53;;;;;;;4.80;1.20;;;25.50;91.30;;;;;;5053049;28;20029;-68
2021/07/07 12:37:20;;;;;;;5.18;1.10;;;25.20;91.50;;;;;;5052313;28;20477;-68
2021/07/07 12:39:54;;;;;;;3.92;0.90;;;25.70;92.50;;;;;;5052165;28;20029;-68
2021/07/07 12:42:31;;;;;;;7.65;2.05;;;25.80;90.90;;;;;;5052366;28;20109;-68
2021/07/07 12:45:11;;;;;;;11.50;2.35;;;26.30;91.10;;;;;;5051074;28;20036;-67
2021/07/07 12:47:37;;;;;;;3.60;1.00;;;26.50;89.70;;;;;;5052141;28;20496;-67
2021/07/07 12:50:19;;;;;;;3.08;1.00;;;26.50;84.80;;;;;;5051102;28;20087;-67
2021/07/07 12:52:46;;;;;;;6.03;1.10;;;26.60;86.00;;;;;;5052233;28;20041;-67
2021/07/07 12:55:23;;;;;;;4.47;1.20;;;26.60;85.50;;;;;;5052281;28;20037;-67
2021/07/07 12:58:09;;;;;;;6.80;0.88;;;26.70;86.70;;;;;;5051969;28;20561;-67
2021/07/07 13:00:41;;;;;;;6.72;1.00;;;26.90;86.10;;;;;;5052030;28;20037;-68
2021/07/07 13:03:19;;;;;;;5.40;1.02;;;27.10;85.80;;;;;;5051978;28;20115;-67